Aeroporto :
LOGIN :

Iscrizione | Disclaimer

   EN    FR    IT 

 










Sommario :    VFR   VFR Marginale   IFR   IFR Intensivo   IFR Molto Intensivo
Visibilità : 
Base nubi : 
>= 8 km
>= 3000ft
5 / 8 km
1000 / 3000 ft
1500m / 5 km
500 / 1000 ft
800 / 1500m
200 / 500 ft
< 800m
< 200 ft
Simboli :   Temporali  Nebbia  Neve Forte  Precipitazioni Forti  Vento > 20 kt
SIGMETs :   Varie  Temporali  Ghiacco  Turbolenza  Onda orograficha  Ceneri Vulcaniche






- Altitudine del aeroporto : 433 ft
- Codice IATA : CCF


LFMK - Carcassonne

ULTIMO METAR :
  • 222230Z AUTO VRB01KT CAVOK 16/15 Q1013

METARs OBSOLETI :
  • 222200Z AUTO 32001KT CAVOK 17/15 Q1013
  • 222130Z AUTO 33001KT 9999 FEW031 BKN056 BKN150 18/16 Q1013
  • 222100Z AUTO VRB02KT 9999 FEW029/// SCT190/// BKN220/// ///TCU 18/16 Q1013
  • 222030Z AUTO 22004KT 190V250 9999 ///TCU 18/17 Q1013
  • 222000Z AUTO 21003KT 160V240 9999 FEW041/// BKN110/// ///TCU 18/16 Q1013

TAF TAF LFMK
Valido dal 22 a 15 ore il 23 a 15 ore UTC


221400Z 2215/2315 28010KT 9999 BKN030 BKN100
TEMPO 2215/2218 SHRA FEW025CB
BECMG 2222/2224 VRB04KT
PROB30
TEMPO 2301/2309 4000 BR BKN010
BECMG 2310/2312 09010KT CAVOK



MetMap, La meteo Aeronautica in un colpo d'occhio ! - Copyright ORBIFLY Dicembre 2007 - Disclaimer

ORBIFLY MET'MAP TEAM :

Programmazione e sviluppo : Alexandra Zaïnal
Concezione : Baudouin d'Aumeries
Aiuto per la programmazione : Marc-Olivier Méhu
Supporto tecnico e logistico : Manuel Goepfert
Aiuto per la traduzione : Arnaldo La Scala

Contatto : metmap@orbifly.com




FONTI E CREDITI :

   NOAA